Aérodrome :
LOGIN :

S'inscrire | Disclaimer

   EN    FR    IT 

 










Légende :    VFR   VFR Marginal   IFR   IFR Intensif   IFR Très Intensif
Visi : 
Plafond : 
>= 8 km
>= 3000ft
5 à 8 km
1000 à 3000 ft
1500m à 5 km
500 à 1000 ft
800 à 1500m
200 à 500 ft
< 800m
< 200 ft
Symboles :   Orages  Brouillard  Fortes neiges  Fortes précipitations  Vent > 20 kt
SIGMETs :   Divers  Orages  Givrage  Turbulence  Onde Orograph.  Cendres Volcan.







- Altitude de l'aérodrome : 284 ft


EGUW - RAF Wattisham

DERNIER METAR :
  • 171350Z 31004KT 9999 BKN005 OVC016 14/13 Q1019 YLO1 BECMG FEW005 BKN016 WHT

METARs EXPIRÉS :
  • 171250Z 27002KT 6000 -DZ SCT003 BKN010 13/13 Q1019 YLO2 BECMG 9999 NSW BKN008 GRN
  • 171150Z 27004KT 2800 DZ BKN004 13/13 Q1019 YLO2 BECMG 5000 -DZ BKN005 YLO1

TAF TAF EGUW
Valide du 17 à 15h jusqu'au 18 à 00h UTC


171326Z 1715/1724 34007KT 9999 BKN010
PROB30
TEMPO 1715/1716 3000 -RADZ BKN005
BECMG 1717/1720 FEW010 BKN030
BECMG 1722/1724 7000 BR
Pas de NOTAMs connus pour ce terrain.



MET'MAP, la Météo Aéronautique d'un coup d'oeil ! - Copyright ORBIFLY Décembre 2007 - Disclaimer

ORBIFLY MET'MAP TEAM :

Programmation & Développement : Alexandra Zaïnal
Conception & Développement : Baudouin d'Aumeries
Co-Programmation & Développement : Marc-Olivier Méhu
Soutien technique & logistique : Manuel Goepfert

Contact : metmap@orbifly.com




SOURCES & CREDITS :

   NOAA